Terminal Aerodrome Forecast
Issued by NWS Paducah, KY

Home | Current Version | Previous Version | Text Only | Print | Product List | Glossary On
Versions: 1 2 3 4 5 6 7 8 9 10 11 12
000
FTUS43 KPAH 181700
TAFPAH
TAF
KPAH 181723Z 1818/1918 06006KT P6SM BKN040 BKN200
     FM190000 05003KT P6SM SCT050
     FM191500 10005KT P6SM FEW040=

USA.gov is the U.S. government's official web portal to all federal, state and local government web resources and services.